sensor_id;sensor_type;location;lat;lon;timestamp;P1;durP1;ratioP1;P2;durP2;ratioP2
20749;SDS011;10535;50.664;4.564;2023-02-15T00:01:47;45.60;;;22.10;;
20749;SDS011;10535;50.664;4.564;2023-02-15T00:04:14;46.37;;;20.97;;
20749;SDS011;10535;50.664;4.564;2023-02-15T00:06:40;57.77;;;24.70;;
20749;SDS011;10535;50.664;4.564;2023-02-15T00:09:06;57.00;;;22.77;;
20749;SDS011;10535;50.664;4.564;2023-02-15T00:11:33;41.67;;;20.70;;
20749;SDS011;10535;50.664;4.564;2023-02-15T00:14:25;54.17;;;22.60;;
20749;SDS011;10535;50.664;4.564;2023-02-15T00:16:51;40.13;;;18.53;;
20749;SDS011;10535;50.664;4.564;2023-02-15T00:19:18;38.70;;;20.20;;
20749;SDS011;10535;50.664;4.564;2023-02-15T00:21:45;45.83;;;20.70;;
20749;SDS011;10535;50.664;4.564;2023-02-15T00:24:12;47.87;;;20.43;;
20749;SDS011;10535;50.664;4.564;2023-02-15T00:26:40;51.93;;;21.87;;
20749;SDS011;10535;50.664;4.564;2023-02-15T00:29:07;51.10;;;19.83;;
20749;SDS011;10535;50.664;4.564;2023-02-15T00:31:33;51.80;;;23.30;;
20749;SDS011;10535;50.664;4.564;2023-02-15T00:34:01;54.60;;;24.37;;
20749;SDS011;10535;50.664;4.564;2023-02-15T00:36:37;51.40;;;24.63;;
20749;SDS011;10535;50.664;4.564;2023-02-15T00:39:03;49.17;;;21.77;;
20749;SDS011;10535;50.664;4.564;2023-02-15T00:41:30;50.27;;;22.07;;
20749;SDS011;10535;50.664;4.564;2023-02-15T00:43:56;46.10;;;22.73;;
20749;SDS011;10535;50.664;4.564;2023-02-15T00:46:22;46.27;;;19.73;;
20749;SDS011;10535;50.664;4.564;2023-02-15T00:48:48;46.27;;;19.50;;
20749;SDS011;10535;50.664;4.564;2023-02-15T00:51:14;40.10;;;19.63;;
20749;SDS011;10535;50.664;4.564;2023-02-15T00:53:39;52.30;;;20.43;;
20749;SDS011;10535;50.664;4.564;2023-02-15T00:56:05;45.83;;;20.77;;
20749;SDS011;10535;50.664;4.564;2023-02-15T00:58:31;34.27;;;19.67;;
20749;SDS011;10535;50.664;4.564;2023-02-15T01:01:02;42.60;;;20.10;;
20749;SDS011;10535;50.664;4.564;2023-02-15T01:03:29;43.50;;;18.73;;
20749;SDS011;10535;50.664;4.564;2023-02-15T01:05:54;44.90;;;19.87;;
20749;SDS011;10535;50.664;4.564;2023-02-15T01:08:20;37.13;;;17.40;;
20749;SDS011;10535;50.664;4.564;2023-02-15T01:10:45;46.27;;;19.53;;
20749;SDS011;10535;50.664;4.564;2023-02-15T01:13:12;38.13;;;18.17;;
20749;SDS011;10535;50.664;4.564;2023-02-15T01:15:39;45.43;;;20.67;;
20749;SDS011;10535;50.664;4.564;2023-02-15T01:18:04;44.63;;;19.83;;
20749;SDS011;10535;50.664;4.564;2023-02-15T01:20:33;41.13;;;19.03;;
20749;SDS011;10535;50.664;4.564;2023-02-15T01:23:01;28.80;;;17.20;;
20749;SDS011;10535;50.664;4.564;2023-02-15T01:25:27;47.47;;;19.90;;
20749;SDS011;10535;50.664;4.564;2023-02-15T01:27:53;35.40;;;18.00;;
20749;SDS011;10535;50.664;4.564;2023-02-15T01:30:19;45.03;;;19.73;;
20749;SDS011;10535;50.664;4.564;2023-02-15T01:32:44;44.13;;;19.43;;
20749;SDS011;10535;50.664;4.564;2023-02-15T01:35:10;45.90;;;19.17;;
20749;SDS011;10535;50.664;4.564;2023-02-15T01:37:36;45.67;;;19.27;;
20749;SDS011;10535;50.664;4.564;2023-02-15T01:40:02;40.03;;;20.57;;
20749;SDS011;10535;50.664;4.564;2023-02-15T01:42:31;43.57;;;19.77;;
20749;SDS011;10535;50.664;4.564;2023-02-15T01:45:01;49.70;;;20.73;;
20749;SDS011;10535;50.664;4.564;2023-02-15T01:47:37;43.17;;;19.90;;
20749;SDS011;10535;50.664;4.564;2023-02-15T01:50:08;43.10;;;19.70;;
20749;SDS011;10535;50.664;4.564;2023-02-15T01:52:40;42.10;;;17.90;;
20749;SDS011;10535;50.664;4.564;2023-02-15T01:55:16;44.77;;;21.63;;
20749;SDS011;10535;50.664;4.564;2023-02-15T01:57:42;40.63;;;19.17;;
20749;SDS011;10535;50.664;4.564;2023-02-15T02:00:10;43.40;;;19.23;;
20749;SDS011;10535;50.664;4.564;2023-02-15T02:02:36;45.20;;;18.90;;
20749;SDS011;10535;50.664;4.564;2023-02-15T02:05:03;44.63;;;19.27;;
20749;SDS011;10535;50.664;4.564;2023-02-15T02:07:32;46.57;;;20.23;;
20749;SDS011;10535;50.664;4.564;2023-02-15T02:10:10;36.13;;;18.50;;
20749;SDS011;10535;50.664;4.564;2023-02-15T02:12:38;40.97;;;19.90;;
20749;SDS011;10535;50.664;4.564;2023-02-15T02:15:06;48.27;;;19.10;;
20749;SDS011;10535;50.664;4.564;2023-02-15T02:17:45;45.53;;;21.03;;
20749;SDS011;10535;50.664;4.564;2023-02-15T02:20:48;44.30;;;18.80;;
20749;SDS011;10535;50.664;4.564;2023-02-15T02:42:22;46.00;;;20.97;;
20749;SDS011;10535;50.664;4.564;2023-02-15T02:45:00;39.50;;;17.77;;
20749;SDS011;10535;50.664;4.564;2023-02-15T02:47:34;37.53;;;17.80;;
20749;SDS011;10535;50.664;4.564;2023-02-15T02:50:06;38.07;;;18.27;;
20749;SDS011;10535;50.664;4.564;2023-02-15T02:52:44;47.30;;;19.23;;
20749;SDS011;10535;50.664;4.564;2023-02-15T02:55:19;40.30;;;19.43;;
20749;SDS011;10535;50.664;4.564;2023-02-15T02:58:00;34.67;;;18.03;;
20749;SDS011;10535;50.664;4.564;2023-02-15T03:00:44;39.43;;;17.60;;
20749;SDS011;10535;50.664;4.564;2023-02-15T03:03:19;39.43;;;17.10;;
20749;SDS011;10535;50.664;4.564;2023-02-15T03:05:57;39.37;;;19.10;;
20749;SDS011;10535;50.664;4.564;2023-02-15T03:08:25;36.50;;;17.80;;
20749;SDS011;10535;50.664;4.564;2023-02-15T03:10:58;42.27;;;18.13;;
20749;SDS011;10535;50.664;4.564;2023-02-15T03:13:25;43.53;;;19.17;;
20749;SDS011;10535;50.664;4.564;2023-02-15T03:15:52;43.17;;;19.53;;
20749;SDS011;10535;50.664;4.564;2023-02-15T03:18:39;40.27;;;17.27;;
20749;SDS011;10535;50.664;4.564;2023-02-15T03:21:09;42.50;;;19.63;;
20749;SDS011;10535;50.664;4.564;2023-02-15T03:23:47;44.57;;;18.53;;
20749;SDS011;10535;50.664;4.564;2023-02-15T03:26:18;44.60;;;18.83;;
20749;SDS011;10535;50.664;4.564;2023-02-15T03:28:47;36.00;;;18.87;;
20749;SDS011;10535;50.664;4.564;2023-02-15T03:31:16;36.30;;;17.23;;
20749;SDS011;10535;50.664;4.564;2023-02-15T03:33:48;33.27;;;17.17;;
20749;SDS011;10535;50.664;4.564;2023-02-15T03:36:24;37.73;;;18.60;;
20749;SDS011;10535;50.664;4.564;2023-02-15T03:39:47;42.10;;;17.47;;
20749;SDS011;10535;50.664;4.564;2023-02-15T03:42:16;27.67;;;15.13;;
20749;SDS011;10535;50.664;4.564;2023-02-15T03:44:51;33.70;;;17.23;;
20749;SDS011;10535;50.664;4.564;2023-02-15T03:47:26;39.93;;;17.77;;
20749;SDS011;10535;50.664;4.564;2023-02-15T03:50:08;37.87;;;17.30;;
20749;SDS011;10535;50.664;4.564;2023-02-15T03:53:16;33.37;;;15.97;;
20749;SDS011;10535;50.664;4.564;2023-02-15T03:55:46;33.90;;;16.57;;
20749;SDS011;10535;50.664;4.564;2023-02-15T03:58:18;38.13;;;16.40;;
20749;SDS011;10535;50.664;4.564;2023-02-15T04:01:10;33.30;;;15.70;;
20749;SDS011;10535;50.664;4.564;2023-02-15T04:04:03;32.20;;;15.83;;
20749;SDS011;10535;50.664;4.564;2023-02-15T04:06:38;40.13;;;16.63;;
20749;SDS011;10535;50.664;4.564;2023-02-15T04:09:03;34.40;;;16.00;;
20749;SDS011;10535;50.664;4.564;2023-02-15T04:11:47;35.07;;;18.17;;
20749;SDS011;10535;50.664;4.564;2023-02-15T04:14:13;32.73;;;16.50;;
20749;SDS011;10535;50.664;4.564;2023-02-15T04:16:57;36.50;;;16.97;;
20749;SDS011;10535;50.664;4.564;2023-02-15T04:19:22;34.37;;;15.73;;
20749;SDS011;10535;50.664;4.564;2023-02-15T04:22:06;38.17;;;17.23;;
20749;SDS011;10535;50.664;4.564;2023-02-15T04:24:51;32.63;;;16.03;;
20749;SDS011;10535;50.664;4.564;2023-02-15T04:27:35;28.57;;;16.50;;
20749;SDS011;10535;50.664;4.564;2023-02-15T04:30:01;39.93;;;15.77;;
20749;SDS011;10535;50.664;4.564;2023-02-15T04:32:27;40.53;;;17.20;;
20749;SDS011;10535;50.664;4.564;2023-02-15T04:34:53;34.77;;;17.37;;
20749;SDS011;10535;50.664;4.564;2023-02-15T04:37:18;36.87;;;17.97;;
20749;SDS011;10535;50.664;4.564;2023-02-15T04:39:44;31.20;;;16.20;;
20749;SDS011;10535;50.664;4.564;2023-02-15T04:42:09;33.57;;;15.63;;
20749;SDS011;10535;50.664;4.564;2023-02-15T04:44:35;40.00;;;16.03;;
20749;SDS011;10535;50.664;4.564;2023-02-15T04:47:01;37.87;;;17.20;;
20749;SDS011;10535;50.664;4.564;2023-02-15T04:49:26;32.40;;;16.63;;
20749;SDS011;10535;50.664;4.564;2023-02-15T04:51:52;39.13;;;17.80;;
20749;SDS011;10535;50.664;4.564;2023-02-15T04:54:17;33.93;;;16.50;;
20749;SDS011;10535;50.664;4.564;2023-02-15T04:56:43;33.43;;;15.63;;
20749;SDS011;10535;50.664;4.564;2023-02-15T04:59:10;35.93;;;15.97;;
20749;SDS011;10535;50.664;4.564;2023-02-15T05:01:36;32.43;;;14.97;;
20749;SDS011;10535;50.664;4.564;2023-02-15T05:04:01;29.87;;;15.27;;
20749;SDS011;10535;50.664;4.564;2023-02-15T05:06:28;38.23;;;15.43;;
20749;SDS011;10535;50.664;4.564;2023-02-15T05:08:53;40.30;;;16.97;;
20749;SDS011;10535;50.664;4.564;2023-02-15T05:11:19;34.73;;;16.80;;
20749;SDS011;10535;50.664;4.564;2023-02-15T05:13:45;28.97;;;16.33;;
20749;SDS011;10535;50.664;4.564;2023-02-15T05:16:11;28.43;;;15.60;;
20749;SDS011;10535;50.664;4.564;2023-02-15T05:18:36;33.93;;;16.17;;
20749;SDS011;10535;50.664;4.564;2023-02-15T05:21:02;29.63;;;15.03;;
20749;SDS011;10535;50.664;4.564;2023-02-15T05:23:27;29.23;;;16.27;;
20749;SDS011;10535;50.664;4.564;2023-02-15T05:25:53;28.87;;;16.73;;
20749;SDS011;10535;50.664;4.564;2023-02-15T05:28:37;36.30;;;16.33;;
20749;SDS011;10535;50.664;4.564;2023-02-15T05:31:05;33.70;;;14.97;;
20749;SDS011;10535;50.664;4.564;2023-02-15T05:33:34;36.43;;;15.03;;
20749;SDS011;10535;50.664;4.564;2023-02-15T05:36:00;42.80;;;19.00;;
20749;SDS011;10535;50.664;4.564;2023-02-15T05:38:27;28.60;;;15.67;;
20749;SDS011;10535;50.664;4.564;2023-02-15T05:40:53;30.13;;;15.40;;
20749;SDS011;10535;50.664;4.564;2023-02-15T05:43:19;34.63;;;16.30;;
20749;SDS011;10535;50.664;4.564;2023-02-15T05:45:45;33.77;;;17.03;;
20749;SDS011;10535;50.664;4.564;2023-02-15T05:48:12;40.73;;;16.37;;
20749;SDS011;10535;50.664;4.564;2023-02-15T05:50:37;27.67;;;15.73;;
20749;SDS011;10535;50.664;4.564;2023-02-15T05:53:03;39.97;;;16.63;;
20749;SDS011;10535;50.664;4.564;2023-02-15T05:55:28;32.93;;;15.33;;
20749;SDS011;10535;50.664;4.564;2023-02-15T05:57:54;38.23;;;16.30;;
20749;SDS011;10535;50.664;4.564;2023-02-15T06:00:20;29.80;;;14.90;;
20749;SDS011;10535;50.664;4.564;2023-02-15T06:02:45;27.67;;;15.07;;
20749;SDS011;10535;50.664;4.564;2023-02-15T06:05:12;30.50;;;14.90;;
20749;SDS011;10535;50.664;4.564;2023-02-15T06:07:37;34.77;;;15.23;;
20749;SDS011;10535;50.664;4.564;2023-02-15T06:10:03;33.30;;;16.93;;
20749;SDS011;10535;50.664;4.564;2023-02-15T06:12:29;31.40;;;15.20;;
20749;SDS011;10535;50.664;4.564;2023-02-15T06:14:55;31.60;;;14.90;;
20749;SDS011;10535;50.664;4.564;2023-02-15T06:17:21;35.13;;;18.53;;
20749;SDS011;10535;50.664;4.564;2023-02-15T06:19:46;35.87;;;17.57;;
20749;SDS011;10535;50.664;4.564;2023-02-15T06:22:12;36.70;;;17.47;;
20749;SDS011;10535;50.664;4.564;2023-02-15T06:24:39;32.40;;;14.07;;
20749;SDS011;10535;50.664;4.564;2023-02-15T06:27:05;39.00;;;18.07;;
20749;SDS011;10535;50.664;4.564;2023-02-15T06:29:30;35.30;;;17.00;;
20749;SDS011;10535;50.664;4.564;2023-02-15T06:31:56;30.83;;;15.63;;
20749;SDS011;10535;50.664;4.564;2023-02-15T06:34:21;36.83;;;16.17;;
20749;SDS011;10535;50.664;4.564;2023-02-15T06:36:47;33.30;;;16.33;;
20749;SDS011;10535;50.664;4.564;2023-02-15T06:39:12;37.30;;;16.27;;
20749;SDS011;10535;50.664;4.564;2023-02-15T06:41:39;36.10;;;17.37;;
20749;SDS011;10535;50.664;4.564;2023-02-15T06:44:05;34.73;;;17.07;;
20749;SDS011;10535;50.664;4.564;2023-02-15T06:46:30;35.63;;;20.77;;
20749;SDS011;10535;50.664;4.564;2023-02-15T06:48:56;33.40;;;17.27;;
20749;SDS011;10535;50.664;4.564;2023-02-15T06:51:21;42.53;;;17.27;;
20749;SDS011;10535;50.664;4.564;2023-02-15T06:53:47;34.37;;;16.17;;
20749;SDS011;10535;50.664;4.564;2023-02-15T06:56:13;32.53;;;14.83;;
20749;SDS011;10535;50.664;4.564;2023-02-15T06:58:39;32.60;;;16.17;;
20749;SDS011;10535;50.664;4.564;2023-02-15T07:01:05;32.33;;;16.77;;
20749;SDS011;10535;50.664;4.564;2023-02-15T07:03:31;32.33;;;15.60;;
20749;SDS011;10535;50.664;4.564;2023-02-15T07:05:58;32.63;;;15.97;;
20749;SDS011;10535;50.664;4.564;2023-02-15T07:08:26;38.73;;;18.50;;
20749;SDS011;10535;50.664;4.564;2023-02-15T07:10:53;32.27;;;15.60;;
20749;SDS011;10535;50.664;4.564;2023-02-15T07:13:20;32.40;;;15.03;;
20749;SDS011;10535;50.664;4.564;2023-02-15T07:15:46;35.77;;;16.47;;
20749;SDS011;10535;50.664;4.564;2023-02-15T07:18:12;32.97;;;15.30;;
20749;SDS011;10535;50.664;4.564;2023-02-15T07:20:38;37.50;;;16.43;;
20749;SDS011;10535;50.664;4.564;2023-02-15T07:23:06;38.60;;;17.93;;
20749;SDS011;10535;50.664;4.564;2023-02-15T07:25:33;33.97;;;15.43;;
20749;SDS011;10535;50.664;4.564;2023-02-15T07:27:59;33.20;;;16.73;;
20749;SDS011;10535;50.664;4.564;2023-02-15T07:30:26;37.17;;;17.30;;
20749;SDS011;10535;50.664;4.564;2023-02-15T07:32:56;35.30;;;15.63;;
20749;SDS011;10535;50.664;4.564;2023-02-15T07:35:50;40.87;;;18.00;;
20749;SDS011;10535;50.664;4.564;2023-02-15T07:38:22;40.83;;;18.80;;
20749;SDS011;10535;50.664;4.564;2023-02-15T07:40:49;39.37;;;16.47;;
20749;SDS011;10535;50.664;4.564;2023-02-15T07:43:15;47.10;;;19.73;;
20749;SDS011;10535;50.664;4.564;2023-02-15T07:45:41;47.03;;;19.47;;
20749;SDS011;10535;50.664;4.564;2023-02-15T07:48:07;36.37;;;16.53;;
20749;SDS011;10535;50.664;4.564;2023-02-15T07:50:33;41.67;;;16.53;;
20749;SDS011;10535;50.664;4.564;2023-02-15T07:53:00;37.10;;;18.23;;
20749;SDS011;10535;50.664;4.564;2023-02-15T07:55:27;43.57;;;18.27;;
20749;SDS011;10535;50.664;4.564;2023-02-15T07:57:53;46.10;;;20.03;;
20749;SDS011;10535;50.664;4.564;2023-02-15T08:00:19;37.13;;;18.63;;
20749;SDS011;10535;50.664;4.564;2023-02-15T08:02:55;44.70;;;19.73;;
20749;SDS011;10535;50.664;4.564;2023-02-15T08:05:39;45.03;;;20.87;;
20749;SDS011;10535;50.664;4.564;2023-02-15T08:08:07;40.70;;;20.10;;
20749;SDS011;10535;50.664;4.564;2023-02-15T08:10:33;41.97;;;19.87;;
20749;SDS011;10535;50.664;4.564;2023-02-15T08:13:19;34.50;;;18.87;;
20749;SDS011;10535;50.664;4.564;2023-02-15T08:15:54;47.43;;;19.97;;
20749;SDS011;10535;50.664;4.564;2023-02-15T08:18:19;45.13;;;19.20;;
20749;SDS011;10535;50.664;4.564;2023-02-15T08:20:48;45.10;;;20.77;;
20749;SDS011;10535;50.664;4.564;2023-02-15T08:23:15;34.90;;;18.23;;
20749;SDS011;10535;50.664;4.564;2023-02-15T08:25:40;42.40;;;19.87;;
20749;SDS011;10535;50.664;4.564;2023-02-15T08:28:06;42.07;;;19.63;;
20749;SDS011;10535;50.664;4.564;2023-02-15T08:30:31;42.30;;;19.33;;
20749;SDS011;10535;50.664;4.564;2023-02-15T08:32:57;41.23;;;18.63;;
20749;SDS011;10535;50.664;4.564;2023-02-15T08:35:24;38.07;;;17.57;;
20749;SDS011;10535;50.664;4.564;2023-02-15T08:37:50;47.73;;;20.63;;
20749;SDS011;10535;50.664;4.564;2023-02-15T08:40:16;40.40;;;20.13;;
20749;SDS011;10535;50.664;4.564;2023-02-15T08:42:42;41.43;;;21.33;;
20749;SDS011;10535;50.664;4.564;2023-02-15T08:45:07;41.60;;;21.83;;
20749;SDS011;10535;50.664;4.564;2023-02-15T08:47:33;44.43;;;21.80;;
20749;SDS011;10535;50.664;4.564;2023-02-15T08:49:59;49.50;;;22.33;;
20749;SDS011;10535;50.664;4.564;2023-02-15T08:52:24;49.13;;;21.83;;
20749;SDS011;10535;50.664;4.564;2023-02-15T08:54:50;48.10;;;21.73;;
20749;SDS011;10535;50.664;4.564;2023-02-15T08:57:16;50.00;;;20.87;;
20749;SDS011;10535;50.664;4.564;2023-02-15T08:59:41;41.33;;;19.03;;
20749;SDS011;10535;50.664;4.564;2023-02-15T09:02:09;38.87;;;18.17;;
20749;SDS011;10535;50.664;4.564;2023-02-15T09:04:35;34.57;;;17.47;;
20749;SDS011;10535;50.664;4.564;2023-02-15T09:07:00;40.57;;;18.50;;
20749;SDS011;10535;50.664;4.564;2023-02-15T09:09:29;47.57;;;18.60;;
20749;SDS011;10535;50.664;4.564;2023-02-15T09:11:56;35.27;;;17.43;;
20749;SDS011;10535;50.664;4.564;2023-02-15T09:14:21;45.20;;;18.70;;
20749;SDS011;10535;50.664;4.564;2023-02-15T09:16:49;30.93;;;17.03;;
20749;SDS011;10535;50.664;4.564;2023-02-15T09:19:17;38.27;;;17.53;;
20749;SDS011;10535;50.664;4.564;2023-02-15T09:21:44;34.70;;;15.43;;
20749;SDS011;10535;50.664;4.564;2023-02-15T09:24:12;33.33;;;15.17;;
20749;SDS011;10535;50.664;4.564;2023-02-15T09:26:41;37.73;;;16.70;;
20749;SDS011;10535;50.664;4.564;2023-02-15T09:29:08;31.83;;;16.33;;
20749;SDS011;10535;50.664;4.564;2023-02-15T09:31:44;32.67;;;14.07;;
20749;SDS011;10535;50.664;4.564;2023-02-15T09:34:14;30.60;;;15.40;;
20749;SDS011;10535;50.664;4.564;2023-02-15T09:36:42;25.67;;;13.90;;
20749;SDS011;10535;50.664;4.564;2023-02-15T09:39:09;37.07;;;14.73;;
20749;SDS011;10535;50.664;4.564;2023-02-15T09:52:48;36.60;;;16.20;;
20749;SDS011;10535;50.664;4.564;2023-02-15T09:58:00;21.87;;;11.70;;
20749;SDS011;10535;50.664;4.564;2023-02-15T10:17:44;28.07;;;13.03;;
20749;SDS011;10535;50.664;4.564;2023-02-15T10:20:27;28.10;;;12.67;;
20749;SDS011;10535;50.664;4.564;2023-02-15T10:34:27;30.57;;;13.33;;
20749;SDS011;10535;50.664;4.564;2023-02-15T10:47:51;29.20;;;13.20;;
20749;SDS011;10535;50.664;4.564;2023-02-15T10:50:50;31.13;;;12.50;;
20749;SDS011;10535;50.664;4.564;2023-02-15T10:53:37;27.87;;;13.63;;
20749;SDS011;10535;50.664;4.564;2023-02-15T10:56:24;29.87;;;12.20;;
20749;SDS011;10535;50.664;4.564;2023-02-15T10:59:19;24.80;;;11.97;;
20749;SDS011;10535;50.664;4.564;2023-02-15T11:02:02;32.70;;;14.37;;
20749;SDS011;10535;50.664;4.564;2023-02-15T11:07:15;30.63;;;13.07;;
20749;SDS011;10535;50.664;4.564;2023-02-15T11:10:11;26.80;;;12.47;;
20749;SDS011;10535;50.664;4.564;2023-02-15T11:12:40;29.20;;;12.93;;
20749;SDS011;10535;50.664;4.564;2023-02-15T11:17:55;22.20;;;11.87;;
20749;SDS011;10535;50.664;4.564;2023-02-15T11:20:50;28.33;;;13.10;;
20749;SDS011;10535;50.664;4.564;2023-02-15T11:23:21;28.57;;;12.50;;
20749;SDS011;10535;50.664;4.564;2023-02-15T11:25:54;25.63;;;12.60;;
20749;SDS011;10535;50.664;4.564;2023-02-15T11:28:31;27.63;;;12.33;;
20749;SDS011;10535;50.664;4.564;2023-02-15T11:31:02;27.37;;;13.70;;
20749;SDS011;10535;50.664;4.564;2023-02-15T11:33:42;24.70;;;12.20;;
20749;SDS011;10535;50.664;4.564;2023-02-15T11:36:16;32.93;;;14.30;;
20749;SDS011;10535;50.664;4.564;2023-02-15T11:38:46;32.57;;;13.77;;
20749;SDS011;10535;50.664;4.564;2023-02-15T11:41:18;31.77;;;13.10;;
20749;SDS011;10535;50.664;4.564;2023-02-15T11:46:31;25.97;;;12.63;;
20749;SDS011;10535;50.664;4.564;2023-02-15T11:48:57;27.50;;;13.27;;
20749;SDS011;10535;50.664;4.564;2023-02-15T11:51:23;30.70;;;12.93;;
20749;SDS011;10535;50.664;4.564;2023-02-15T11:53:52;22.83;;;11.10;;
20749;SDS011;10535;50.664;4.564;2023-02-15T11:56:21;29.13;;;13.53;;
20749;SDS011;10535;50.664;4.564;2023-02-15T11:58:51;25.77;;;11.97;;
20749;SDS011;10535;50.664;4.564;2023-02-15T12:01:36;27.20;;;12.30;;
20749;SDS011;10535;50.664;4.564;2023-02-15T12:09:50;31.87;;;14.53;;
20749;SDS011;10535;50.664;4.564;2023-02-15T12:12:31;26.87;;;13.27;;
20749;SDS011;10535;50.664;4.564;2023-02-15T12:14:59;25.30;;;13.47;;
20749;SDS011;10535;50.664;4.564;2023-02-15T12:17:31;27.60;;;13.03;;
20749;SDS011;10535;50.664;4.564;2023-02-15T12:20:04;26.53;;;13.27;;
20749;SDS011;10535;50.664;4.564;2023-02-15T12:23:06;29.47;;;14.07;;
20749;SDS011;10535;50.664;4.564;2023-02-15T12:25:42;33.07;;;14.63;;
20749;SDS011;10535;50.664;4.564;2023-02-15T12:31:02;27.73;;;13.37;;
20749;SDS011;10535;50.664;4.564;2023-02-15T12:33:34;31.33;;;14.60;;
20749;SDS011;10535;50.664;4.564;2023-02-15T12:36:08;28.93;;;13.30;;
20749;SDS011;10535;50.664;4.564;2023-02-15T12:41:37;28.30;;;13.07;;
20749;SDS011;10535;50.664;4.564;2023-02-15T12:44:19;23.53;;;13.33;;
20749;SDS011;10535;50.664;4.564;2023-02-15T12:49:24;24.77;;;12.50;;
20749;SDS011;10535;50.664;4.564;2023-02-15T12:51:57;29.20;;;13.90;;
20749;SDS011;10535;50.664;4.564;2023-02-15T12:54:41;26.07;;;13.20;;
20749;SDS011;10535;50.664;4.564;2023-02-15T13:00:28;30.80;;;13.50;;
20749;SDS011;10535;50.664;4.564;2023-02-15T13:08:01;25.60;;;13.20;;
20749;SDS011;10535;50.664;4.564;2023-02-15T13:10:37;31.40;;;13.17;;
20749;SDS011;10535;50.664;4.564;2023-02-15T13:13:18;32.93;;;13.77;;
20749;SDS011;10535;50.664;4.564;2023-02-15T13:15:50;25.53;;;12.80;;
20749;SDS011;10535;50.664;4.564;2023-02-15T13:18:29;26.20;;;13.73;;
20749;SDS011;10535;50.664;4.564;2023-02-15T13:21:04;31.00;;;13.87;;
20749;SDS011;10535;50.664;4.564;2023-02-15T13:23:36;28.57;;;13.33;;
20749;SDS011;10535;50.664;4.564;2023-02-15T13:26:05;25.23;;;13.23;;
20749;SDS011;10535;50.664;4.564;2023-02-15T13:28:46;25.07;;;13.60;;
20749;SDS011;10535;50.664;4.564;2023-02-15T13:31:15;30.00;;;13.97;;
20749;SDS011;10535;50.664;4.564;2023-02-15T13:33:48;31.90;;;14.33;;
20749;SDS011;10535;50.664;4.564;2023-02-15T13:42:04;28.77;;;13.70;;
20749;SDS011;10535;50.664;4.564;2023-02-15T13:49:45;31.33;;;14.50;;
20749;SDS011;10535;50.664;4.564;2023-02-15T13:52:27;28.40;;;13.73;;
20749;SDS011;10535;50.664;4.564;2023-02-15T13:55:00;27.30;;;13.90;;
20749;SDS011;10535;50.664;4.564;2023-02-15T13:57:44;26.63;;;13.63;;
20749;SDS011;10535;50.664;4.564;2023-02-15T14:00:54;29.63;;;13.83;;
20749;SDS011;10535;50.664;4.564;2023-02-15T14:11:44;25.20;;;13.03;;
20749;SDS011;10535;50.664;4.564;2023-02-15T14:22:11;29.77;;;14.67;;
20749;SDS011;10535;50.664;4.564;2023-02-15T14:30:10;29.23;;;13.40;;
20749;SDS011;10535;50.664;4.564;2023-02-15T14:32:47;36.13;;;14.77;;
20749;SDS011;10535;50.664;4.564;2023-02-15T14:35:19;28.93;;;12.27;;
20749;SDS011;10535;50.664;4.564;2023-02-15T14:37:50;28.77;;;12.53;;
20749;SDS011;10535;50.664;4.564;2023-02-15T14:49:19;29.00;;;12.80;;
20749;SDS011;10535;50.664;4.564;2023-02-15T14:57:30;27.70;;;12.83;;
20749;SDS011;10535;50.664;4.564;2023-02-15T15:02:11;29.20;;;13.67;;
20749;SDS011;10535;50.664;4.564;2023-02-15T15:04:43;30.13;;;12.97;;
20749;SDS011;10535;50.664;4.564;2023-02-15T15:07:22;32.03;;;15.27;;
20749;SDS011;10535;50.664;4.564;2023-02-15T15:10:00;25.03;;;13.47;;
20749;SDS011;10535;50.664;4.564;2023-02-15T15:12:58;27.70;;;13.63;;
20749;SDS011;10535;50.664;4.564;2023-02-15T15:15:46;32.47;;;13.67;;
20749;SDS011;10535;50.664;4.564;2023-02-15T15:21:10;29.93;;;14.43;;
20749;SDS011;10535;50.664;4.564;2023-02-15T15:26:23;30.73;;;13.73;;
20749;SDS011;10535;50.664;4.564;2023-02-15T15:28:53;30.93;;;13.40;;
20749;SDS011;10535;50.664;4.564;2023-02-15T15:34:21;31.47;;;15.37;;
20749;SDS011;10535;50.664;4.564;2023-02-15T15:50:53;27.00;;;14.97;;
20749;SDS011;10535;50.664;4.564;2023-02-15T15:53:25;33.40;;;15.53;;
20749;SDS011;10535;50.664;4.564;2023-02-15T15:55:58;33.33;;;14.10;;
20749;SDS011;10535;50.664;4.564;2023-02-15T15:58:30;32.57;;;15.73;;
20749;SDS011;10535;50.664;4.564;2023-02-15T16:01:09;32.20;;;15.63;;
20749;SDS011;10535;50.664;4.564;2023-02-15T16:03:47;27.60;;;13.93;;
20749;SDS011;10535;50.664;4.564;2023-02-15T16:06:26;30.57;;;15.10;;
20749;SDS011;10535;50.664;4.564;2023-02-15T16:08:55;30.87;;;15.03;;
20749;SDS011;10535;50.664;4.564;2023-02-15T16:11:21;34.30;;;16.33;;
20749;SDS011;10535;50.664;4.564;2023-02-15T16:13:50;33.37;;;16.13;;
20749;SDS011;10535;50.664;4.564;2023-02-15T16:16:21;26.27;;;14.53;;
20749;SDS011;10535;50.664;4.564;2023-02-15T16:18:53;29.57;;;15.63;;
20749;SDS011;10535;50.664;4.564;2023-02-15T16:21:28;30.23;;;15.47;;
20749;SDS011;10535;50.664;4.564;2023-02-15T16:24:06;33.40;;;15.23;;
20749;SDS011;10535;50.664;4.564;2023-02-15T16:29:28;32.37;;;14.60;;
20749;SDS011;10535;50.664;4.564;2023-02-15T16:32:02;35.80;;;15.60;;
20749;SDS011;10535;50.664;4.564;2023-02-15T16:34:52;32.20;;;15.80;;
20749;SDS011;10535;50.664;4.564;2023-02-15T16:37:19;41.30;;;16.10;;
20749;SDS011;10535;50.664;4.564;2023-02-15T16:39:48;33.00;;;15.93;;
20749;SDS011;10535;50.664;4.564;2023-02-15T16:42:15;32.83;;;16.60;;
20749;SDS011;10535;50.664;4.564;2023-02-15T16:44:43;42.23;;;18.23;;
20749;SDS011;10535;50.664;4.564;2023-02-15T16:47:17;33.67;;;16.57;;
20749;SDS011;10535;50.664;4.564;2023-02-15T16:49:49;29.07;;;15.23;;
20749;SDS011;10535;50.664;4.564;2023-02-15T16:52:21;38.67;;;16.33;;
20749;SDS011;10535;50.664;4.564;2023-02-15T16:54:56;38.40;;;16.33;;
20749;SDS011;10535;50.664;4.564;2023-02-15T16:57:25;34.07;;;17.07;;
20749;SDS011;10535;50.664;4.564;2023-02-15T16:59:56;35.87;;;18.27;;
20749;SDS011;10535;50.664;4.564;2023-02-15T17:02:29;36.23;;;17.23;;
20749;SDS011;10535;50.664;4.564;2023-02-15T17:08:27;35.73;;;16.63;;
20749;SDS011;10535;50.664;4.564;2023-02-15T17:10:41;34.67;;;16.67;;
20749;SDS011;10535;50.664;4.564;2023-02-15T17:13:17;33.43;;;16.30;;
20749;SDS011;10535;50.664;4.564;2023-02-15T17:18:43;32.93;;;17.43;;
20749;SDS011;10535;50.664;4.564;2023-02-15T17:21:30;35.30;;;16.77;;
20749;SDS011;10535;50.664;4.564;2023-02-15T17:23:59;38.87;;;18.73;;
20749;SDS011;10535;50.664;4.564;2023-02-15T17:26:30;40.20;;;18.27;;
20749;SDS011;10535;50.664;4.564;2023-02-15T17:28:59;42.50;;;17.90;;
20749;SDS011;10535;50.664;4.564;2023-02-15T17:31:34;35.50;;;17.90;;
20749;SDS011;10535;50.664;4.564;2023-02-15T17:34:00;36.93;;;17.33;;
20749;SDS011;10535;50.664;4.564;2023-02-15T17:36:27;41.70;;;18.37;;
20749;SDS011;10535;50.664;4.564;2023-02-15T17:41:27;39.60;;;18.97;;
20749;SDS011;10535;50.664;4.564;2023-02-15T17:43:54;39.87;;;18.33;;
20749;SDS011;10535;50.664;4.564;2023-02-15T17:46:20;43.50;;;19.47;;
20749;SDS011;10535;50.664;4.564;2023-02-15T17:48:50;35.47;;;17.93;;
20749;SDS011;10535;50.664;4.564;2023-02-15T17:51:18;42.10;;;18.23;;